sensor_id;sensor_type;location;lat;lon;timestamp;temperature;humidity
21216;DHT22;10765;50.954;5.322;2022-07-06T00:00:56;12.70;99.90
21216;DHT22;10765;50.954;5.322;2022-07-06T00:03:23;12.70;99.90
21216;DHT22;10765;50.954;5.322;2022-07-06T00:05:50;12.70;99.90
21216;DHT22;10765;50.954;5.322;2022-07-06T00:08:18;12.70;99.90
21216;DHT22;10765;50.954;5.322;2022-07-06T00:10:45;12.70;99.90
21216;DHT22;10765;50.954;5.322;2022-07-06T00:13:14;12.60;99.90
21216;DHT22;10765;50.954;5.322;2022-07-06T00:15:41;12.70;99.90
21216;DHT22;10765;50.954;5.322;2022-07-06T00:18:08;12.50;99.90
21216;DHT22;10765;50.954;5.322;2022-07-06T00:20:35;12.50;1.00
21216;DHT22;10765;50.954;5.322;2022-07-06T00:23:02;12.50;1.00
21216;DHT22;10765;50.954;5.322;2022-07-06T00:25:31;12.40;1.00
21216;DHT22;10765;50.954;5.322;2022-07-06T00:27:57;12.30;1.00
21216;DHT22;10765;50.954;5.322;2022-07-06T00:30:24;12.20;1.00
21216;DHT22;10765;50.954;5.322;2022-07-06T00:32:51;12.20;1.00
21216;DHT22;10765;50.954;5.322;2022-07-06T00:35:18;12.20;1.00
21216;DHT22;10765;50.954;5.322;2022-07-06T00:37:45;12.10;1.00
21216;DHT22;10765;50.954;5.322;2022-07-06T00:40:12;12.10;1.00
21216;DHT22;10765;50.954;5.322;2022-07-06T00:42:41;12.10;1.00
21216;DHT22;10765;50.954;5.322;2022-07-06T00:45:10;12.10;1.00
21216;DHT22;10765;50.954;5.322;2022-07-06T00:47:37;12.20;21.20
21216;DHT22;10765;50.954;5.322;2022-07-06T00:50:05;12.10;1.00
21216;DHT22;10765;50.954;5.322;2022-07-06T00:52:45;12.10;1.00
21216;DHT22;10765;50.954;5.322;2022-07-06T00:55:14;12.10;1.00
21216;DHT22;10765;50.954;5.322;2022-07-06T00:57:43;12.00;1.00
21216;DHT22;10765;50.954;5.322;2022-07-06T01:00:11;12.00;1.00
21216;DHT22;10765;50.954;5.322;2022-07-06T01:02:39;11.90;1.00
21216;DHT22;10765;50.954;5.322;2022-07-06T01:05:07;11.90;1.00
21216;DHT22;10765;50.954;5.322;2022-07-06T01:07:36;12.00;1.00
21216;DHT22;10765;50.954;5.322;2022-07-06T01:10:03;11.90;1.00
21216;DHT22;10765;50.954;5.322;2022-07-06T01:12:31;11.90;1.00
21216;DHT22;10765;50.954;5.322;2022-07-06T01:15:00;11.90;21.50
21216;DHT22;10765;50.954;5.322;2022-07-06T01:17:28;11.90;14.10
21216;DHT22;10765;50.954;5.322;2022-07-06T01:19:55;11.90;99.90
21216;DHT22;10765;50.954;5.322;2022-07-06T01:22:24;11.80;99.90
21216;DHT22;10765;50.954;5.322;2022-07-06T01:24:51;11.80;99.90
21216;DHT22;10765;50.954;5.322;2022-07-06T01:27:18;11.70;99.90
21216;DHT22;10765;50.954;5.322;2022-07-06T01:29:45;11.60;99.90
21216;DHT22;10765;50.954;5.322;2022-07-06T01:32:11;11.60;1.00
21216;DHT22;10765;50.954;5.322;2022-07-06T01:34:40;11.60;1.00
21216;DHT22;10765;50.954;5.322;2022-07-06T01:37:07;11.60;1.00
21216;DHT22;10765;50.954;5.322;2022-07-06T01:39:35;11.60;1.00
21216;DHT22;10765;50.954;5.322;2022-07-06T01:42:03;11.50;99.90
21216;DHT22;10765;50.954;5.322;2022-07-06T01:44:30;11.40;1.00
21216;DHT22;10765;50.954;5.322;2022-07-06T01:46:57;11.40;1.00
21216;DHT22;10765;50.954;5.322;2022-07-06T01:49:24;11.50;1.00
21216;DHT22;10765;50.954;5.322;2022-07-06T01:51:51;11.50;1.00
21216;DHT22;10765;50.954;5.322;2022-07-06T01:54:17;11.50;99.90
21216;DHT22;10765;50.954;5.322;2022-07-06T01:56:46;11.50;99.90
21216;DHT22;10765;50.954;5.322;2022-07-06T01:59:13;11.50;99.90
21216;DHT22;10765;50.954;5.322;2022-07-06T02:01:40;11.50;1.00
21216;DHT22;10765;50.954;5.322;2022-07-06T02:04:07;11.40;1.00
21216;DHT22;10765;50.954;5.322;2022-07-06T02:06:33;11.30;1.00
21216;DHT22;10765;50.954;5.322;2022-07-06T02:09:00;11.30;1.00
21216;DHT22;10765;50.954;5.322;2022-07-06T02:11:27;11.30;88.80
21216;DHT22;10765;50.954;5.322;2022-07-06T02:13:56;11.20;1.00
21216;DHT22;10765;50.954;5.322;2022-07-06T02:16:23;11.30;1.00
21216;DHT22;10765;50.954;5.322;2022-07-06T02:18:49;11.30;99.90
21216;DHT22;10765;50.954;5.322;2022-07-06T02:21:16;11.30;1.00
21216;DHT22;10765;50.954;5.322;2022-07-06T02:23:43;11.30;99.90
21216;DHT22;10765;50.954;5.322;2022-07-06T02:26:12;11.40;52.90
21216;DHT22;10765;50.954;5.322;2022-07-06T02:28:38;11.30;99.90
21216;DHT22;10765;50.954;5.322;2022-07-06T02:31:07;11.20;1.00
21216;DHT22;10765;50.954;5.322;2022-07-06T02:33:35;11.20;1.00
21216;DHT22;10765;50.954;5.322;2022-07-06T02:36:02;11.30;1.00
21216;DHT22;10765;50.954;5.322;2022-07-06T02:38:29;11.20;99.90
21216;DHT22;10765;50.954;5.322;2022-07-06T02:40:56;11.10;1.00
21216;DHT22;10765;50.954;5.322;2022-07-06T02:43:23;11.10;1.00
21216;DHT22;10765;50.954;5.322;2022-07-06T02:45:50;11.10;1.00
21216;DHT22;10765;50.954;5.322;2022-07-06T02:48:18;11.20;1.00
21216;DHT22;10765;50.954;5.322;2022-07-06T02:50:47;11.10;99.90
21216;DHT22;10765;50.954;5.322;2022-07-06T02:53:14;11.10;1.00
21216;DHT22;10765;50.954;5.322;2022-07-06T02:55:40;10.90;1.00
21216;DHT22;10765;50.954;5.322;2022-07-06T02:58:07;10.90;1.00
21216;DHT22;10765;50.954;5.322;2022-07-06T03:00:34;10.90;99.90
21216;DHT22;10765;50.954;5.322;2022-07-06T03:03:01;10.90;99.90
21216;DHT22;10765;50.954;5.322;2022-07-06T03:05:32;10.90;1.00
21216;DHT22;10765;50.954;5.322;2022-07-06T03:07:59;11.00;99.90
21216;DHT22;10765;50.954;5.322;2022-07-06T03:10:26;11.00;73.30
21216;DHT22;10765;50.954;5.322;2022-07-06T03:12:53;10.90;99.90
21216;DHT22;10765;50.954;5.322;2022-07-06T03:15:20;10.80;1.00
21216;DHT22;10765;50.954;5.322;2022-07-06T03:17:47;10.80;1.00
21216;DHT22;10765;50.954;5.322;2022-07-06T03:20:13;10.70;99.90
21216;DHT22;10765;50.954;5.322;2022-07-06T03:22:42;10.70;99.90
21216;DHT22;10765;50.954;5.322;2022-07-06T03:25:09;10.70;99.90
21216;DHT22;10765;50.954;5.322;2022-07-06T03:27:36;10.70;99.90
21216;DHT22;10765;50.954;5.322;2022-07-06T03:30:03;10.60;1.00
21216;DHT22;10765;50.954;5.322;2022-07-06T03:32:30;10.60;1.00
21216;DHT22;10765;50.954;5.322;2022-07-06T03:34:57;10.50;1.00
21216;DHT22;10765;50.954;5.322;2022-07-06T03:37:24;10.40;99.90
21216;DHT22;10765;50.954;5.322;2022-07-06T03:39:52;10.50;1.00
21216;DHT22;10765;50.954;5.322;2022-07-06T03:42:19;10.50;1.00
21216;DHT22;10765;50.954;5.322;2022-07-06T03:44:46;10.50;99.90
21216;DHT22;10765;50.954;5.322;2022-07-06T03:47:13;10.50;99.90
21216;DHT22;10765;50.954;5.322;2022-07-06T03:49:40;10.50;99.90
21216;DHT22;10765;50.954;5.322;2022-07-06T03:52:07;10.60;99.90
21216;DHT22;10765;50.954;5.322;2022-07-06T03:54:34;10.60;99.90
21216;DHT22;10765;50.954;5.322;2022-07-06T03:57:03;10.60;1.00
21216;DHT22;10765;50.954;5.322;2022-07-06T03:59:30;10.50;18.40
21216;DHT22;10765;50.954;5.322;2022-07-06T04:01:57;10.50;1.00
21216;DHT22;10765;50.954;5.322;2022-07-06T04:04:23;10.70;99.90
21216;DHT22;10765;50.954;5.322;2022-07-06T04:06:51;10.70;99.90
21216;DHT22;10765;50.954;5.322;2022-07-06T04:09:18;10.80;1.00
21216;DHT22;10765;50.954;5.322;2022-07-06T04:11:45;11.00;1.00
21216;DHT22;10765;50.954;5.322;2022-07-06T04:14:14;11.10;1.00
21216;DHT22;10765;50.954;5.322;2022-07-06T04:16:40;11.20;99.90
21216;DHT22;10765;50.954;5.322;2022-07-06T04:19:07;11.50;99.90
21216;DHT22;10765;50.954;5.322;2022-07-06T04:21:34;11.90;1.00
21216;DHT22;10765;50.954;5.322;2022-07-06T04:24:01;12.20;1.00
21216;DHT22;10765;50.954;5.322;2022-07-06T04:26:28;12.30;1.00
21216;DHT22;10765;50.954;5.322;2022-07-06T04:28:55;12.20;1.00
21216;DHT22;10765;50.954;5.322;2022-07-06T04:31:24;12.40;1.00
21216;DHT22;10765;50.954;5.322;2022-07-06T04:33:51;12.60;1.00
21216;DHT22;10765;50.954;5.322;2022-07-06T04:36:18;12.70;99.90
21216;DHT22;10765;50.954;5.322;2022-07-06T04:38:45;12.90;1.00
21216;DHT22;10765;50.954;5.322;2022-07-06T04:41:13;13.20;99.90
21216;DHT22;10765;50.954;5.322;2022-07-06T04:43:40;13.50;99.90
21216;DHT22;10765;50.954;5.322;2022-07-06T04:46:07;13.70;7.80
21216;DHT22;10765;50.954;5.322;2022-07-06T04:48:35;14.00;34.70
21216;DHT22;10765;50.954;5.322;2022-07-06T04:51:04;14.30;1.00
21216;DHT22;10765;50.954;5.322;2022-07-06T04:53:31;14.70;1.00
21216;DHT22;10765;50.954;5.322;2022-07-06T04:55:58;15.10;1.00
21216;DHT22;10765;50.954;5.322;2022-07-06T04:58:25;15.50;99.90
21216;DHT22;10765;50.954;5.322;2022-07-06T05:00:52;15.80;99.90
21216;DHT22;10765;50.954;5.322;2022-07-06T05:03:19;15.90;99.90
21216;DHT22;10765;50.954;5.322;2022-07-06T05:05:47;16.00;99.90
21216;DHT22;10765;50.954;5.322;2022-07-06T05:08:14;16.60;99.90
21216;DHT22;10765;50.954;5.322;2022-07-06T05:10:41;17.30;40.50
21216;DHT22;10765;50.954;5.322;2022-07-06T05:13:08;17.90;1.00
21216;DHT22;10765;50.954;5.322;2022-07-06T05:15:35;17.90;1.00
21216;DHT22;10765;50.954;5.322;2022-07-06T05:18:02;17.60;1.00
21216;DHT22;10765;50.954;5.322;2022-07-06T05:20:30;17.00;1.00
21216;DHT22;10765;50.954;5.322;2022-07-06T05:22:59;17.50;1.00
21216;DHT22;10765;50.954;5.322;2022-07-06T05:25:26;18.40;1.00
21216;DHT22;10765;50.954;5.322;2022-07-06T05:27:54;18.90;1.00
21216;DHT22;10765;50.954;5.322;2022-07-06T05:30:21;19.50;1.00
21216;DHT22;10765;50.954;5.322;2022-07-06T05:32:48;20.20;1.00
21216;DHT22;10765;50.954;5.322;2022-07-06T05:35:14;20.80;1.00
21216;DHT22;10765;50.954;5.322;2022-07-06T05:37:41;20.70;1.00
21216;DHT22;10765;50.954;5.322;2022-07-06T05:40:11;20.80;1.00
21216;DHT22;10765;50.954;5.322;2022-07-06T05:42:38;20.60;1.00
21216;DHT22;10765;50.954;5.322;2022-07-06T05:45:06;19.80;1.00
21216;DHT22;10765;50.954;5.322;2022-07-06T05:47:33;19.70;1.00
21216;DHT22;10765;50.954;5.322;2022-07-06T05:50:17;19.50;1.00
21216;DHT22;10765;50.954;5.322;2022-07-06T05:52:55;19.50;1.00
21216;DHT22;10765;50.954;5.322;2022-07-06T05:55:24;19.40;1.00
21216;DHT22;10765;50.954;5.322;2022-07-06T05:57:51;19.20;1.00
21216;DHT22;10765;50.954;5.322;2022-07-06T06:00:19;19.20;1.00
21216;DHT22;10765;50.954;5.322;2022-07-06T06:02:46;19.40;1.00
21216;DHT22;10765;50.954;5.322;2022-07-06T06:05:14;19.60;1.00
21216;DHT22;10765;50.954;5.322;2022-07-06T06:07:42;19.40;1.00
21216;DHT22;10765;50.954;5.322;2022-07-06T06:10:11;19.40;1.00
21216;DHT22;10765;50.954;5.322;2022-07-06T06:12:40;20.10;1.00
21216;DHT22;10765;50.954;5.322;2022-07-06T06:15:08;20.50;1.00
21216;DHT22;10765;50.954;5.322;2022-07-06T06:17:36;20.70;1.00
21216;DHT22;10765;50.954;5.322;2022-07-06T06:20:04;20.50;1.00
21216;DHT22;10765;50.954;5.322;2022-07-06T06:22:44;20.00;1.00
21216;DHT22;10765;50.954;5.322;2022-07-06T06:25:12;19.30;1.00
21216;DHT22;10765;50.954;5.322;2022-07-06T06:27:41;18.70;1.00
21216;DHT22;10765;50.954;5.322;2022-07-06T06:30:08;18.50;1.00
21216;DHT22;10765;50.954;5.322;2022-07-06T06:32:36;18.50;1.00
21216;DHT22;10765;50.954;5.322;2022-07-06T06:35:04;18.40;1.00
21216;DHT22;10765;50.954;5.322;2022-07-06T06:37:31;18.70;1.00
21216;DHT22;10765;50.954;5.322;2022-07-06T06:39:59;18.90;1.00
21216;DHT22;10765;50.954;5.322;2022-07-06T06:42:26;19.00;1.00
21216;DHT22;10765;50.954;5.322;2022-07-06T06:44:55;19.40;1.00
21216;DHT22;10765;50.954;5.322;2022-07-06T06:47:23;19.90;1.00
21216;DHT22;10765;50.954;5.322;2022-07-06T06:49:50;20.20;1.00
21216;DHT22;10765;50.954;5.322;2022-07-06T06:52:17;20.30;1.00
21216;DHT22;10765;50.954;5.322;2022-07-06T06:54:46;21.00;1.00
21216;DHT22;10765;50.954;5.322;2022-07-06T06:57:14;22.50;1.00
21216;DHT22;10765;50.954;5.322;2022-07-06T06:59:41;23.10;1.00
21216;DHT22;10765;50.954;5.322;2022-07-06T07:02:09;23.30;1.00
21216;DHT22;10765;50.954;5.322;2022-07-06T07:04:36;23.90;1.00
21216;DHT22;10765;50.954;5.322;2022-07-06T07:07:03;23.70;1.00
21216;DHT22;10765;50.954;5.322;2022-07-06T07:09:30;22.80;1.00
21216;DHT22;10765;50.954;5.322;2022-07-06T07:11:57;22.20;1.00
21216;DHT22;10765;50.954;5.322;2022-07-06T07:14:24;22.70;1.00
21216;DHT22;10765;50.954;5.322;2022-07-06T07:16:53;23.60;1.00
21216;DHT22;10765;50.954;5.322;2022-07-06T07:19:21;24.00;1.00
21216;DHT22;10765;50.954;5.322;2022-07-06T07:21:48;25.10;1.00
21216;DHT22;10765;50.954;5.322;2022-07-06T07:24:15;25.20;1.00
21216;DHT22;10765;50.954;5.322;2022-07-06T07:26:42;25.60;1.00
21216;DHT22;10765;50.954;5.322;2022-07-06T07:29:09;24.80;1.00
21216;DHT22;10765;50.954;5.322;2022-07-06T07:31:36;25.30;1.00
21216;DHT22;10765;50.954;5.322;2022-07-06T07:34:03;24.80;1.00
21216;DHT22;10765;50.954;5.322;2022-07-06T07:36:32;25.50;1.00
21216;DHT22;10765;50.954;5.322;2022-07-06T07:38:59;26.40;1.00
21216;DHT22;10765;50.954;5.322;2022-07-06T07:41:25;26.90;1.00
21216;DHT22;10765;50.954;5.322;2022-07-06T07:43:52;27.20;99.90
21216;DHT22;10765;50.954;5.322;2022-07-06T07:46:21;27.10;99.90
21216;DHT22;10765;50.954;5.322;2022-07-06T07:48:48;27.50;99.90
21216;DHT22;10765;50.954;5.322;2022-07-06T07:51:15;27.30;99.90
21216;DHT22;10765;50.954;5.322;2022-07-06T07:53:45;26.80;99.90
21216;DHT22;10765;50.954;5.322;2022-07-06T07:56:12;26.80;99.90
21216;DHT22;10765;50.954;5.322;2022-07-06T07:58:39;27.30;99.90
21216;DHT22;10765;50.954;5.322;2022-07-06T08:01:06;27.30;99.90
21216;DHT22;10765;50.954;5.322;2022-07-06T08:03:33;26.70;99.90
21216;DHT22;10765;50.954;5.322;2022-07-06T08:06:00;25.90;99.90
21216;DHT22;10765;50.954;5.322;2022-07-06T08:08:27;25.40;1.00
21216;DHT22;10765;50.954;5.322;2022-07-06T08:10:56;25.80;1.00
21216;DHT22;10765;50.954;5.322;2022-07-06T08:13:23;27.40;99.90
21216;DHT22;10765;50.954;5.322;2022-07-06T08:15:50;28.80;99.90
21216;DHT22;10765;50.954;5.322;2022-07-06T08:18:16;28.40;99.90
21216;DHT22;10765;50.954;5.322;2022-07-06T08:20:43;27.80;99.90
21216;DHT22;10765;50.954;5.322;2022-07-06T08:23:11;28.30;99.90
21216;DHT22;10765;50.954;5.322;2022-07-06T08:25:38;29.10;99.90
21216;DHT22;10765;50.954;5.322;2022-07-06T08:28:07;29.50;99.90
21216;DHT22;10765;50.954;5.322;2022-07-06T08:30:33;28.70;99.90
21216;DHT22;10765;50.954;5.322;2022-07-06T08:33:01;28.60;99.90
21216;DHT22;10765;50.954;5.322;2022-07-06T08:35:28;27.70;99.90
21216;DHT22;10765;50.954;5.322;2022-07-06T08:37:56;27.40;99.90
21216;DHT22;10765;50.954;5.322;2022-07-06T08:40:23;26.80;99.90
21216;DHT22;10765;50.954;5.322;2022-07-06T08:42:53;25.90;1.00
21216;DHT22;10765;50.954;5.322;2022-07-06T08:45:24;27.10;99.90
21216;DHT22;10765;50.954;5.322;2022-07-06T08:47:54;27.40;99.90
21216;DHT22;10765;50.954;5.322;2022-07-06T08:50:21;27.80;99.90
21216;DHT22;10765;50.954;5.322;2022-07-06T08:52:49;27.40;99.90
21216;DHT22;10765;50.954;5.322;2022-07-06T08:55:17;27.00;99.90
21216;DHT22;10765;50.954;5.322;2022-07-06T08:57:46;27.70;99.90
21216;DHT22;10765;50.954;5.322;2022-07-06T09:00:14;28.30;99.90
21216;DHT22;10765;50.954;5.322;2022-07-06T09:02:43;29.00;99.90
21216;DHT22;10765;50.954;5.322;2022-07-06T09:05:14;28.40;99.90
21216;DHT22;10765;50.954;5.322;2022-07-06T09:07:42;26.40;99.90
21216;DHT22;10765;50.954;5.322;2022-07-06T09:10:11;26.40;1.00
21216;DHT22;10765;50.954;5.322;2022-07-06T09:12:38;26.70;1.00
21216;DHT22;10765;50.954;5.322;2022-07-06T09:15:06;26.90;1.00
21216;DHT22;10765;50.954;5.322;2022-07-06T09:17:38;25.90;1.00
21216;DHT22;10765;50.954;5.322;2022-07-06T09:20:09;26.40;1.00
21216;DHT22;10765;50.954;5.322;2022-07-06T09:22:37;26.80;1.00
21216;DHT22;10765;50.954;5.322;2022-07-06T09:25:06;26.50;1.00
21216;DHT22;10765;50.954;5.322;2022-07-06T09:27:37;27.10;1.00
21216;DHT22;10765;50.954;5.322;2022-07-06T09:30:06;28.40;99.90
21216;DHT22;10765;50.954;5.322;2022-07-06T09:32:38;29.10;99.90
21216;DHT22;10765;50.954;5.322;2022-07-06T09:35:08;28.60;99.90
21216;DHT22;10765;50.954;5.322;2022-07-06T09:37:35;27.60;99.90
21216;DHT22;10765;50.954;5.322;2022-07-06T09:40:15;26.70;1.00
21216;DHT22;10765;50.954;5.322;2022-07-06T09:42:43;26.60;1.00
21216;DHT22;10765;50.954;5.322;2022-07-06T09:45:10;26.50;1.00
21216;DHT22;10765;50.954;5.322;2022-07-06T09:47:37;25.80;1.00
21216;DHT22;10765;50.954;5.322;2022-07-06T09:50:08;25.60;1.00
21216;DHT22;10765;50.954;5.322;2022-07-06T09:52:36;25.90;1.00
21216;DHT22;10765;50.954;5.322;2022-07-06T09:55:08;27.20;1.00
21216;DHT22;10765;50.954;5.322;2022-07-06T09:57:52;27.20;1.00
21216;DHT22;10765;50.954;5.322;2022-07-06T10:00:20;26.40;1.00
21216;DHT22;10765;50.954;5.322;2022-07-06T10:02:49;25.90;1.00
21216;DHT22;10765;50.954;5.322;2022-07-06T10:05:18;26.70;1.00
21216;DHT22;10765;50.954;5.322;2022-07-06T10:07:46;28.40;1.00
21216;DHT22;10765;50.954;5.322;2022-07-06T10:10:15;28.80;99.90
21216;DHT22;10765;50.954;5.322;2022-07-06T10:12:44;28.80;99.90
21216;DHT22;10765;50.954;5.322;2022-07-06T10:15:16;27.90;99.90
21216;DHT22;10765;50.954;5.322;2022-07-06T10:17:44;26.20;1.00
21216;DHT22;10765;50.954;5.322;2022-07-06T10:20:13;26.10;1.00
21216;DHT22;10765;50.954;5.322;2022-07-06T10:22:42;26.70;1.00
21216;DHT22;10765;50.954;5.322;2022-07-06T10:25:10;27.70;1.00
21216;DHT22;10765;50.954;5.322;2022-07-06T10:27:38;27.70;1.00
21216;DHT22;10765;50.954;5.322;2022-07-06T10:30:07;27.20;1.00
21216;DHT22;10765;50.954;5.322;2022-07-06T10:32:35;26.90;1.00
21216;DHT22;10765;50.954;5.322;2022-07-06T10:35:03;26.00;1.00
21216;DHT22;10765;50.954;5.322;2022-07-06T10:37:30;25.60;1.00
21216;DHT22;10765;50.954;5.322;2022-07-06T10:39:59;25.60;1.00
21216;DHT22;10765;50.954;5.322;2022-07-06T10:42:45;26.20;1.00
21216;DHT22;10765;50.954;5.322;2022-07-06T10:45:19;26.70;1.00
21216;DHT22;10765;50.954;5.322;2022-07-06T10:47:46;26.50;1.00
21216;DHT22;10765;50.954;5.322;2022-07-06T10:50:14;26.40;1.00
21216;DHT22;10765;50.954;5.322;2022-07-06T10:52:57;27.10;1.00
21216;DHT22;10765;50.954;5.322;2022-07-06T10:55:30;27.70;1.00
21216;DHT22;10765;50.954;5.322;2022-07-06T10:57:58;27.90;1.00
21216;DHT22;10765;50.954;5.322;2022-07-06T11:00:26;28.30;1.00
21216;DHT22;10765;50.954;5.322;2022-07-06T11:02:53;29.40;99.90
21216;DHT22;10765;50.954;5.322;2022-07-06T11:05:42;30.70;99.90
21216;DHT22;10765;50.954;5.322;2022-07-06T11:08:09;32.20;99.90
21216;DHT22;10765;50.954;5.322;2022-07-06T11:10:50;32.40;99.90
21216;DHT22;10765;50.954;5.322;2022-07-06T11:13:27;32.20;99.90
21216;DHT22;10765;50.954;5.322;2022-07-06T11:16:01;30.50;99.90
21216;DHT22;10765;50.954;5.322;2022-07-06T11:18:38;30.60;99.90
21216;DHT22;10765;50.954;5.322;2022-07-06T11:21:16;30.40;99.90
21216;DHT22;10765;50.954;5.322;2022-07-06T11:23:46;30.40;99.90
21216;DHT22;10765;50.954;5.322;2022-07-06T11:26:16;29.40;99.90
21216;DHT22;10765;50.954;5.322;2022-07-06T11:28:45;27.70;99.90
21216;DHT22;10765;50.954;5.322;2022-07-06T11:31:14;28.90;99.90
21216;DHT22;10765;50.954;5.322;2022-07-06T11:33:41;29.10;99.90
21216;DHT22;10765;50.954;5.322;2022-07-06T11:36:18;29.80;99.90
21216;DHT22;10765;50.954;5.322;2022-07-06T11:38:47;29.40;99.90
21216;DHT22;10765;50.954;5.322;2022-07-06T11:41:17;28.70;99.90
21216;DHT22;10765;50.954;5.322;2022-07-06T11:43:45;30.00;99.90
21216;DHT22;10765;50.954;5.322;2022-07-06T11:46:24;30.60;99.90
21216;DHT22;10765;50.954;5.322;2022-07-06T11:48:52;31.50;99.90
21216;DHT22;10765;50.954;5.322;2022-07-06T11:51:21;30.70;99.90
21216;DHT22;10765;50.954;5.322;2022-07-06T11:53:50;30.80;99.90
21216;DHT22;10765;50.954;5.322;2022-07-06T11:56:20;30.50;99.90
21216;DHT22;10765;50.954;5.322;2022-07-06T11:58:54;33.20;99.90
21216;DHT22;10765;50.954;5.322;2022-07-06T12:01:23;34.50;99.90
21216;DHT22;10765;50.954;5.322;2022-07-06T12:03:50;35.10;99.90
21216;DHT22;10765;50.954;5.322;2022-07-06T12:06:19;33.00;99.90
21216;DHT22;10765;50.954;5.322;2022-07-06T12:08:48;33.60;99.90
21216;DHT22;10765;50.954;5.322;2022-07-06T12:11:21;31.40;99.90
21216;DHT22;10765;50.954;5.322;2022-07-06T12:13:49;32.40;99.90
21216;DHT22;10765;50.954;5.322;2022-07-06T12:16:17;33.40;99.90
21216;DHT22;10765;50.954;5.322;2022-07-06T12:18:46;32.00;99.90
21216;DHT22;10765;50.954;5.322;2022-07-06T12:21:15;30.80;99.90
21216;DHT22;10765;50.954;5.322;2022-07-06T12:23:45;28.90;99.90
21216;DHT22;10765;50.954;5.322;2022-07-06T12:26:13;28.50;99.90
21216;DHT22;10765;50.954;5.322;2022-07-06T12:28:43;30.90;99.90
21216;DHT22;10765;50.954;5.322;2022-07-06T12:31:10;31.60;99.90
21216;DHT22;10765;50.954;5.322;2022-07-06T12:33:38;32.50;99.90
21216;DHT22;10765;50.954;5.322;2022-07-06T12:36:15;34.70;99.90
21216;DHT22;10765;50.954;5.322;2022-07-06T12:38:47;34.50;99.90
21216;DHT22;10765;50.954;5.322;2022-07-06T12:41:28;33.40;99.90
21216;DHT22;10765;50.954;5.322;2022-07-06T12:44:08;34.30;99.90
21216;DHT22;10765;50.954;5.322;2022-07-06T12:46:37;33.40;99.90
21216;DHT22;10765;50.954;5.322;2022-07-06T12:49:13;31.40;99.90
21216;DHT22;10765;50.954;5.322;2022-07-06T12:52:11;30.60;99.90
21216;DHT22;10765;50.954;5.322;2022-07-06T12:54:41;33.10;99.90
21216;DHT22;10765;50.954;5.322;2022-07-06T12:57:11;34.30;99.90
21216;DHT22;10765;50.954;5.322;2022-07-06T12:59:45;33.60;99.90
21216;DHT22;10765;50.954;5.322;2022-07-06T13:02:21;31.40;99.90
21216;DHT22;10765;50.954;5.322;2022-07-06T13:04:56;31.70;99.90
21216;DHT22;10765;50.954;5.322;2022-07-06T13:07:23;30.70;99.90
21216;DHT22;10765;50.954;5.322;2022-07-06T13:09:51;29.10;99.90
21216;DHT22;10765;50.954;5.322;2022-07-06T13:12:18;28.30;1.00
21216;DHT22;10765;50.954;5.322;2022-07-06T13:14:46;29.00;1.00
21216;DHT22;10765;50.954;5.322;2022-07-06T13:17:13;29.30;1.00
21216;DHT22;10765;50.954;5.322;2022-07-06T13:19:40;31.90;99.90
21216;DHT22;10765;50.954;5.322;2022-07-06T13:22:07;32.70;99.90
21216;DHT22;10765;50.954;5.322;2022-07-06T13:24:34;32.10;99.90
21216;DHT22;10765;50.954;5.322;2022-07-06T13:27:02;30.50;99.90
21216;DHT22;10765;50.954;5.322;2022-07-06T13:29:31;27.70;1.00
21216;DHT22;10765;50.954;5.322;2022-07-06T13:31:59;26.60;1.00
21216;DHT22;10765;50.954;5.322;2022-07-06T13:34:26;26.60;1.00
21216;DHT22;10765;50.954;5.322;2022-07-06T13:36:53;28.00;1.00
21216;DHT22;10765;50.954;5.322;2022-07-06T13:39:20;30.70;99.90
21216;DHT22;10765;50.954;5.322;2022-07-06T13:41:53;28.80;1.00
21216;DHT22;10765;50.954;5.322;2022-07-06T13:44:20;26.90;1.00
21216;DHT22;10765;50.954;5.322;2022-07-06T13:46:47;26.40;1.00
21216;DHT22;10765;50.954;5.322;2022-07-06T13:49:15;26.50;1.00
21216;DHT22;10765;50.954;5.322;2022-07-06T13:51:43;27.10;1.00
21216;DHT22;10765;50.954;5.322;2022-07-06T13:54:12;27.10;1.00
21216;DHT22;10765;50.954;5.322;2022-07-06T13:56:39;26.80;1.00
21216;DHT22;10765;50.954;5.322;2022-07-06T13:59:06;26.70;1.00
21216;DHT22;10765;50.954;5.322;2022-07-06T14:01:33;26.60;1.00
21216;DHT22;10765;50.954;5.322;2022-07-06T14:04:00;25.80;1.00
21216;DHT22;10765;50.954;5.322;2022-07-06T14:06:29;25.50;1.00
21216;DHT22;10765;50.954;5.322;2022-07-06T14:08:56;25.40;1.00
21216;DHT22;10765;50.954;5.322;2022-07-06T14:11:23;25.50;1.00
21216;DHT22;10765;50.954;5.322;2022-07-06T14:13:52;25.70;1.00
21216;DHT22;10765;50.954;5.322;2022-07-06T14:16:19;26.00;1.00
21216;DHT22;10765;50.954;5.322;2022-07-06T14:18:46;26.10;1.00
21216;DHT22;10765;50.954;5.322;2022-07-06T14:21:13;26.30;1.00
21216;DHT22;10765;50.954;5.322;2022-07-06T14:23:41;25.70;1.00
21216;DHT22;10765;50.954;5.322;2022-07-06T14:26:08;25.40;1.00
21216;DHT22;10765;50.954;5.322;2022-07-06T14:28:35;25.00;1.00
21216;DHT22;10765;50.954;5.322;2022-07-06T14:31:03;25.70;1.00
21216;DHT22;10765;50.954;5.322;2022-07-06T14:33:30;25.60;1.00
21216;DHT22;10765;50.954;5.322;2022-07-06T14:35:57;25.50;1.00
21216;DHT22;10765;50.954;5.322;2022-07-06T14:38:24;24.60;1.00
21216;DHT22;10765;50.954;5.322;2022-07-06T14:40:55;24.20;1.00
21216;DHT22;10765;50.954;5.322;2022-07-06T14:43:23;24.30;1.00
21216;DHT22;10765;50.954;5.322;2022-07-06T14:45:50;24.70;1.00
21216;DHT22;10765;50.954;5.322;2022-07-06T14:48:19;24.70;1.00
21216;DHT22;10765;50.954;5.322;2022-07-06T14:50:46;24.30;1.00
21216;DHT22;10765;50.954;5.322;2022-07-06T14:53:13;24.00;1.00
21216;DHT22;10765;50.954;5.322;2022-07-06T14:55:40;24.00;1.00
21216;DHT22;10765;50.954;5.322;2022-07-06T14:58:08;24.20;1.00
21216;DHT22;10765;50.954;5.322;2022-07-06T15:00:35;24.80;1.00
21216;DHT22;10765;50.954;5.322;2022-07-06T15:03:02;25.40;1.00
21216;DHT22;10765;50.954;5.322;2022-07-06T15:05:29;25.30;1.00
21216;DHT22;10765;50.954;5.322;2022-07-06T15:07:56;25.40;1.00
21216;DHT22;10765;50.954;5.322;2022-07-06T15:10:23;25.60;1.00
21216;DHT22;10765;50.954;5.322;2022-07-06T15:12:50;25.50;1.00
21216;DHT22;10765;50.954;5.322;2022-07-06T15:15:19;25.30;1.00
21216;DHT22;10765;50.954;5.322;2022-07-06T15:17:46;25.40;1.00
21216;DHT22;10765;50.954;5.322;2022-07-06T15:20:13;25.40;1.00
21216;DHT22;10765;50.954;5.322;2022-07-06T15:22:42;25.60;1.00
21216;DHT22;10765;50.954;5.322;2022-07-06T15:25:09;25.40;1.00
21216;DHT22;10765;50.954;5.322;2022-07-06T15:27:37;25.30;1.00
21216;DHT22;10765;50.954;5.322;2022-07-06T15:30:04;25.50;1.00
21216;DHT22;10765;50.954;5.322;2022-07-06T15:32:33;26.00;1.00
21216;DHT22;10765;50.954;5.322;2022-07-06T15:34:59;25.90;1.00
21216;DHT22;10765;50.954;5.322;2022-07-06T15:37:30;26.00;1.00
21216;DHT22;10765;50.954;5.322;2022-07-06T15:39:57;26.00;1.00
21216;DHT22;10765;50.954;5.322;2022-07-06T15:42:23;25.70;1.00
21216;DHT22;10765;50.954;5.322;2022-07-06T15:44:51;25.60;1.00
21216;DHT22;10765;50.954;5.322;2022-07-06T15:47:18;25.30;1.00